Mount Hood, OR

12:00 AM PDT on April 24, 2017 (GMT -0700)
Aubert, Mt. Hood-Parkdale, OR | | Change Station

Elev 1602 ft 45.53 °N, 121.57 °W | Updated 10 minutes ago

Rain
Rain
42.1 °F
Feels Like 42 °F
N
0.9
Wind Variable Wind from NE
Gusts 5.4 mph

Today
High -- | Low -- °F
--% Chance of Precip.
Yesterday
High -- | Low -- °F
Precip. -- in
Pressure 29.82 in
Visibility 10.0 miles
Clouds Few 6000 ft
Scattered Clouds 7500 ft
Mostly Cloudy 10000 ft
Windchill 42 °F
Dew Point 39 °F
Humidity 89%
Rainfall 0.10 in
Snow Depth Not available.
6:04 AM 8:04 PM
Waning Crescent, 7% visible
METAR KDLS 240653Z AUTO 33009KT 10SM FEW060 SCT075 BKN100 10/06 A2981 RMK AO2 SLP096 T01000056
Pressure 29.82 in
Visibility 10.0 miles
Clouds Few 6000 ft
Scattered Clouds 7500 ft
Mostly Cloudy 10000 ft
Windchill 42 °F
Dew Point 39 °F
Humidity 89%
Rainfall 0.10 in
Snow Depth Not available.
6:04 AM 8:04 PM
Waning Crescent, 7% visible
METAR KDLS 240653Z AUTO 33009KT 10SM FEW060 SCT075 BKN100 10/06 A2981 RMK AO2 SLP096 T01000056

Get Severe Weather Alerts

Thanks for signing up!

Be on the lookout for a verification email in your inbox.

You'll start receiving the daily forecast at 8 AM.

×

10-Day Weather Forecast

Almanac

Astronomy

Apr. 24, 2017 Rise Set
Actual Time
Civil Twilight
Nautical Twilight
Astronomical Twilight
Moon
Length of Visible Light
Length of Day
Tomorrow will be .
, % of the Moon is Illuminated

Today's Extremes

State Highs State Lows

Community

WunderPhotos

WunderBlog® & News

Nearby

Air Quality

  Air Quality AQ Index Pollutant
Not available.

Snow Depth

Station Depth Elevation

Earthquake Activity

City Distance Mag. Time & Date
Minimum magnitude displayed is 2.5.

Coastal Water Temperatures

Place Temperature

Stations

Nearby Weather Stations

Station Location Temp. Windchill Dew Point Humidity Wind Precip. Elev Updated Type
                   

Watches & Warnings

There are currently no watches in effect.